Time,TemperatureF,DewpointF,PressureIn,WindDirection,WindDirectionDegrees,WindSpeedMPH,WindSpeedGustMPH,Humidity,HourlyPrecipIn,Conditions,Clouds,dailyrainin,SoftwareType,DateUTC
2013-03-06 00:00:00,35.2,29.3,29.85,ENE,68,9.5,11.2,79,0.00,,OVC095,0.00,VWS V14.00,2013-03-06 05:00:00,
2013-03-06 00:20:00,35.9,29.9,29.84,NE,56,5.6,11.3,79,0.00,,OVC095,0.00,VWS V14.00,2013-03-06 05:20:00,
2013-03-06 00:40:00,36.8,30.9,29.83,North,11,4.7,13.9,79,0.00,,OVC070,0.00,VWS V14.00,2013-03-06 05:40:00,
2013-03-06 01:00:00,34.2,30.3,29.82,ENE,75,0.0,17.1,86,0.00,,OVC070,0.00,VWS V14.00,2013-03-06 06:00:00,
2013-03-06 01:20:00,33.0,31.8,29.81,ENE,77,0.0,16.7,95,0.00,,OVC070,0.00,VWS V14.00,2013-03-06 06:20:00,
2013-03-06 01:40:00,32.4,32.2,29.79,NNE,31,0.0,12.0,99,0.00,,OVC040,0.00,VWS V14.00,2013-03-06 06:40:00,
2013-03-06 02:00:00,31.3,31.3,29.76,ENE,65,0.0,8.3,100,0.00,,OVC040,0.00,VWS V14.00,2013-03-06 07:00:00,
2013-03-06 02:20:00,30.9,30.9,29.76,ENE,65,0.0,0.0,100,0.00,,,0.00,VWS V14.00,2013-03-06 07:20:00,
2013-03-06 02:40:00,31.5,31.5,29.74,ENE,65,0.0,0.0,100,0.00,,,0.00,VWS V14.00,2013-03-06 07:40:00,
2013-03-06 03:00:00,30.8,30.8,29.73,East,97,0.0,7.0,100,0.00,,,0.00,VWS V14.00,2013-03-06 08:00:00,
2013-03-06 03:20:00,32.1,32.1,29.73,East,97,0.0,0.0,100,0.00,,,0.00,VWS V14.00,2013-03-06 08:20:00,
2013-03-06 03:40:00,31.1,31.1,29.70,East,97,0.0,0.0,100,0.00,,,0.00,VWS V14.00,2013-03-06 08:40:00,
2013-03-06 04:00:00,31.0,31.0,29.68,ENE,60,0.0,0.0,100,0.00,,,0.00,VWS V14.00,2013-03-06 09:00:00,
2013-03-06 04:20:00,32.4,32.4,29.69,ENE,77,0.0,13.0,100,0.00,,,0.00,VWS V14.00,2013-03-06 09:20:00,
2013-03-06 04:40:00,32.2,32.2,29.68,North,359,0.0,10.3,100,0.00,,,0.00,VWS V14.00,2013-03-06 09:40:00,
2013-03-06 05:00:00,32.2,32.2,29.68,ENE,62,0.0,10.6,100,0.00,,,0.00,VWS V14.00,2013-03-06 10:00:00,
2013-03-06 05:20:00,32.8,32.8,29.67,NE,52,0.0,14.9,100,0.00,,,0.00,VWS V14.00,2013-03-06 10:20:00,
2013-03-06 05:40:00,32.8,32.8,29.67,NE,48,7.8,18.1,100,0.00,,,0.00,VWS V14.00,2013-03-06 10:40:00,
2013-03-06 06:00:00,32.3,32.3,29.68,North,359,0.0,20.2,100,0.00,,,0.00,VWS V14.00,2013-03-06 11:00:00,
2013-03-06 06:20:00,31.4,31.4,29.66,NE,39,5.3,21.0,100,0.00,,,0.00,VWS V14.00,2013-03-06 11:20:00,
2013-03-06 06:40:00,31.5,31.5,29.66,NE,56,8.7,25.4,100,0.00,,,0.00,VWS V14.00,2013-03-06 11:40:00,
2013-03-06 07:00:00,30.9,30.9,29.65,ENE,69,8.6,17.6,100,0.04,,,0.04,VWS V14.00,2013-03-06 12:00:00,
2013-03-06 07:20:00,32.7,32.7,29.66,NE,35,6.8,21.9,100,0.06,,,0.08,VWS V14.00,2013-03-06 12:20:00,
2013-03-06 07:40:00,32.2,32.2,29.65,North,6,9.7,16.2,100,0.08,,,0.12,VWS V14.00,2013-03-06 12:40:00,
2013-03-06 08:00:00,33.0,33.0,29.65,NE,56,7.8,20.3,100,0.09,,,0.16,VWS V14.00,2013-03-06 13:00:00,
2013-03-06 08:20:00,33.3,33.3,29.65,ENE,73,6.8,19.6,100,0.10,,,0.20,VWS V14.00,2013-03-06 13:20:00,
2013-03-06 08:40:00,32.5,32.5,29.65,NE,37,6.1,19.8,100,0.12,,,0.26,VWS V14.00,2013-03-06 13:40:00,
2013-03-06 09:00:00,33.7,33.7,29.64,NNW,347,8.4,19.6,100,0.12,,,0.30,VWS V14.00,2013-03-06 14:00:00,
2013-03-06 09:20:00,34.9,34.9,29.64,North,7,10.4,24.5,100,0.12,,,0.34,VWS V14.00,2013-03-06 14:20:00,
2013-03-06 09:40:00,33.5,33.5,29.64,North,359,3.4,21.4,100,0.14,,,0.40,VWS V14.00,2013-03-06 14:40:00,
2013-03-06 10:00:00,34.0,34.0,29.64,NNE,25,0.0,22.8,100,0.16,,,0.47,VWS V14.00,2013-03-06 15:00:00,
2013-03-06 10:20:00,34.7,34.7,29.64,NNE,13,4.8,24.2,100,0.16,,,0.53,VWS V14.00,2013-03-06 15:20:00,
2013-03-06 10:40:00,34.0,34.0,29.64,North,11,25.2,25.2,100,0.16,,,0.58,VWS V14.00,2013-03-06 15:40:00,
2013-03-06 11:00:00,35.5,35.5,29.64,North,8,8.7,25.2,100,0.13,,,0.60,VWS V14.00,2013-03-06 16:00:00,
2013-03-06 11:20:00,34.2,34.2,29.64,NNW,345,7.0,18.2,100,0.11,,,0.62,VWS V14.00,2013-03-06 16:20:00,
2013-03-06 11:40:00,33.6,33.6,29.65,North,359,8.4,18.1,100,0.10,,,0.65,VWS V14.00,2013-03-06 16:40:00,
2013-03-06 12:00:00,34.1,34.1,29.65,NW,323,11.2,18.1,100,0.11,,,0.69,VWS V14.00,2013-03-06 17:00:00,
2013-03-06 12:20:00,33.6,33.6,29.65,NW,318,12.6,26.0,100,0.09,,,0.71,VWS V14.00,2013-03-06 17:20:00,
2013-03-06 12:40:00,33.5,33.5,29.66,North,352,12.3,23.8,100,0.08,,,0.73,VWS V14.00,2013-03-06 17:40:00,
2013-03-06 13:00:00,35.1,35.1,29.65,NNW,345,9.5,26.8,100,0.07,,,0.74,VWS V14.00,2013-03-06 18:00:00,
2013-03-06 13:40:00,35.4,35.4,29.66,North,354,10.6,22.7,100,0.05,,,0.76,VWS V14.00,2013-03-06 18:40:00,
2013-03-06 14:00:00,34.2,34.2,29.67,North,11,14.6,18.7,100,0.04,,,0.77,VWS V14.00,2013-03-06 19:00:00,
2013-03-06 14:20:00,35.4,35.4,29.68,NW,322,15.2,30.3,100,0.03,,,0.77,VWS V14.00,2013-03-06 19:20:00,
2013-03-06 14:40:00,36.5,36.5,29.70,North,359,6.5,27.5,100,0.03,,,0.78,VWS V14.00,2013-03-06 19:40:00,
2013-03-06 15:00:00,34.2,34.2,29.72,NNW,332,6.4,21.7,100,0.03,,,0.79,VWS V14.00,2013-03-06 20:00:00,
2013-03-06 15:20:00,34.7,34.7,29.73,NNW,342,4.8,20.5,100,0.03,,,0.80,VWS V14.00,2013-03-06 20:20:00,
2013-03-06 15:40:00,34.6,34.6,29.75,NW,311,7.5,19.5,100,0.03,,-RA,0.81,VWS V14.00,2013-03-06 20:40:00,
2013-03-06 16:00:00,34.8,34.8,29.76,WNW,300,7.2,21.9,100,0.03,,-RA,0.82,VWS V14.00,2013-03-06 21:00:00,
2013-03-06 16:20:00,35.0,35.0,29.78,North,352,7.9,18.2,100,0.03,,-RA,0.83,VWS V14.00,2013-03-06 21:20:00,
2013-03-06 16:40:00,35.4,35.4,29.80,NW,308,13.9,17.8,100,0.02,,OVC021,0.83,VWS V14.00,2013-03-06 21:40:00,
2013-03-06 17:00:00,34.6,34.6,29.82,NNW,342,7.1,16.7,100,0.02,,OVC021,0.84,VWS V14.00,2013-03-06 22:00:00,
2013-03-06 17:20:00,35.3,35.3,29.84,NNW,338,0.0,19.7,100,0.03,,OVC021,0.85,VWS V14.00,2013-03-06 22:20:00,
2013-03-06 17:40:00,35.6,35.6,29.85,WNW,294,1.1,21.7,100,0.03,,OVC028,0.86,VWS V14.00,2013-03-06 22:40:00,
2013-03-06 18:00:00,35.6,35.6,29.87,NNE,32,8.0,15.8,100,0.02,,OVC028,0.86,VWS V14.00,2013-03-06 23:00:00,
2013-03-06 18:20:00,36.2,36.2,29.88,NW,314,0.0,13.9,100,0.01,,-RA,0.86,VWS V14.00,2013-03-06 23:20:00,
2013-03-06 18:40:00,37.3,37.3,29.89,NW,319,0.0,14.6,100,0.01,,-RA,0.86,VWS V14.00,2013-03-06 23:40:00,
2013-03-06 19:00:00,36.5,36.5,29.91,NNW,338,0.0,15.4,100,0.01,,-RA,0.86,VWS V14.00,2013-03-07 00:00:00,
2013-03-06 19:20:00,35.3,35.3,29.92,NNW,346,0.0,11.4,100,0.00,,OVC090,0.86,VWS V14.00,2013-03-07 00:20:00,
2013-03-06 19:40:00,36.1,36.1,29.93,North,353,0.0,12.7,100,0.00,,OVC090,0.86,VWS V14.00,2013-03-07 00:40:00,
2013-03-06 20:00:00,36.7,36.7,29.93,NW,307,0.0,15.7,100,0.00,,OVC090,0.86,VWS V14.00,2013-03-07 01:00:00,
2013-03-06 20:20:00,36.0,36.0,29.93,WNW,285,0.0,10.6,100,0.00,,OVC090,0.86,VWS V14.00,2013-03-07 01:20:00,
2013-03-06 20:40:00,36.9,36.3,29.94,North,353,0.0,15.6,98,0.00,,OVC070,0.86,VWS V14.00,2013-03-07 01:40:00,
2013-03-06 21:00:00,36.2,35.2,29.94,NNW,333,0.0,14.5,96,0.00,,OVC070,0.86,VWS V14.00,2013-03-07 02:00:00,
2013-03-06 21:20:00,36.6,35.4,29.95,North,359,0.0,11.6,95,0.00,,OVC070,0.86,VWS V14.00,2013-03-07 02:20:00,
2013-03-06 21:40:00,36.7,35.3,29.95,NNW,329,0.0,10.8,95,0.00,,BKN100,0.86,VWS V14.00,2013-03-07 02:40:00,
2013-03-06 22:00:00,38.5,36.9,29.95,North,354,0.0,11.2,94,0.00,,BKN100,0.86,VWS V14.00,2013-03-07 03:00:00,
2013-03-06 22:20:00,36.9,34.9,29.95,WNW,300,0.0,13.2,92,0.00,,BKN100,0.86,VWS V14.00,2013-03-07 03:20:00,
2013-03-06 22:40:00,37.3,34.7,29.96,NNW,330,5.5,17.7,90,0.00,,BKN100,0.86,VWS V14.00,2013-03-07 03:40:00,
2013-03-06 23:00:00,37.4,34.5,29.97,NNW,329,7.5,12.9,89,0.00,,BKN100,0.86,VWS V14.00,2013-03-07 04:00:00,
2013-03-06 23:20:00,37.7,34.5,29.97,NNW,345,0.0,11.0,88,0.00,,BKN100,0.86,VWS V14.00,2013-03-07 04:20:00,
2013-03-06 23:40:00,38.1,35.0,29.98,WNW,300,0.0,13.9,88,0.00,,BKN080,0.86,VWS V14.00,2013-03-07 04:40:00,